createdAt,value
2023-03-06T00:00:56.974Z,77564.00
2023-03-06T00:03:27.787Z,77570.09
2023-03-06T00:05:57.414Z,77566.03
2023-03-06T00:08:26.242Z,77566.03
2023-03-06T00:10:54.453Z,77570.09
2023-03-06T00:13:22.570Z,77576.19
2023-03-06T00:15:49.997Z,77578.22
2023-03-06T00:18:17.259Z,77582.25
2023-03-06T00:20:44.903Z,77578.22
2023-03-06T00:23:12.677Z,77586.31
2023-03-06T00:25:47.123Z,77586.31
2023-03-06T00:28:15.941Z,77598.47
2023-03-06T00:30:44.546Z,77590.38
2023-03-06T00:33:12.240Z,77594.44
2023-03-06T00:35:40.661Z,77600.50
2023-03-06T00:38:09.910Z,77594.44
2023-03-06T00:40:37.075Z,77602.53
2023-03-06T00:43:04.258Z,77598.47
2023-03-06T00:45:31.896Z,77602.53
2023-03-06T00:47:59.343Z,77602.53
2023-03-06T00:50:26.842Z,77606.59
2023-03-06T00:52:54.424Z,77608.63
2023-03-06T00:55:22.022Z,77612.69
2023-03-06T00:57:49.426Z,77614.69
2023-03-06T01:00:17.225Z,77608.63
2023-03-06T01:02:44.374Z,77612.69
2023-03-06T01:05:13.676Z,77614.69
2023-03-06T01:07:41.234Z,77614.69
2023-03-06T01:10:09.179Z,77614.69
2023-03-06T01:12:37.121Z,77610.66
2023-03-06T01:15:05.460Z,77614.69
2023-03-06T01:17:32.661Z,77614.69
2023-03-06T01:19:59.849Z,77610.66
2023-03-06T01:22:27.614Z,77606.59
2023-03-06T01:24:54.514Z,77612.69
2023-03-06T01:27:22.495Z,77610.66
2023-03-06T01:29:49.423Z,77602.53
2023-03-06T01:32:17.033Z,77610.66
2023-03-06T01:34:43.946Z,77602.53
2023-03-06T01:37:11.691Z,77606.59
2023-03-06T01:39:38.624Z,77602.53
2023-03-06T01:42:06.022Z,77602.53
2023-03-06T01:44:33.446Z,77606.59
2023-03-06T01:47:02.425Z,77598.47
2023-03-06T01:49:36.912Z,77594.44
2023-03-06T01:52:11.102Z,77598.47
2023-03-06T01:55:06.992Z,77602.53
2023-03-06T01:57:38.207Z,77592.41
2023-03-06T02:00:12.818Z,77594.44
2023-03-06T02:03:12.426Z,77594.44
2023-03-06T02:05:41.829Z,77602.53
2023-03-06T02:08:12.981Z,77602.53
2023-03-06T02:10:43.867Z,77604.56
2023-03-06T02:13:11.178Z,77606.59
2023-03-06T02:15:38.823Z,77606.59
2023-03-06T02:18:08.098Z,77610.66
2023-03-06T02:20:57.648Z,77614.69
2023-03-06T02:23:40.882Z,77614.69
2023-03-06T02:26:10.101Z,77614.69
2023-03-06T02:28:37.617Z,77618.75
2023-03-06T02:31:04.957Z,77614.69
2023-03-06T02:33:33.071Z,77610.66
2023-03-06T02:36:06.830Z,77610.66
2023-03-06T02:38:44.736Z,77614.69
2023-03-06T02:41:11.967Z,77614.69
2023-03-06T02:43:41.094Z,77622.81
2023-03-06T02:46:08.052Z,77618.75
2023-03-06T02:48:35.387Z,77620.78
2023-03-06T02:51:02.306Z,77622.81
2023-03-06T02:53:30.250Z,77622.81
2023-03-06T02:55:59.603Z,77614.69
2023-03-06T02:58:27.043Z,77610.66
2023-03-06T03:00:53.968Z,77602.53
2023-03-06T03:03:22.199Z,77608.63
2023-03-06T03:05:49.336Z,77610.66
2023-03-06T03:08:24.202Z,77614.69
2023-03-06T03:10:56.746Z,77606.59
2023-03-06T03:13:25.559Z,77614.69
2023-03-06T03:16:04.049Z,77616.72
2023-03-06T03:18:32.072Z,77614.69
2023-03-06T03:20:59.439Z,77616.72
2023-03-06T03:23:27.569Z,77622.81
2023-03-06T03:26:09.484Z,77626.88
2023-03-06T03:28:40.033Z,77624.84
2023-03-06T03:31:09.536Z,77622.81
2023-03-06T03:33:37.078Z,77622.81
2023-03-06T03:36:06.333Z,77622.81
2023-03-06T03:38:36.949Z,77630.94
2023-03-06T03:41:05.352Z,77637.00
2023-03-06T03:43:33.331Z,77639.03
2023-03-06T03:46:01.058Z,77630.94
2023-03-06T03:48:29.037Z,77639.03
2023-03-06T03:51:11.601Z,77639.03
2023-03-06T03:53:44.149Z,77639.03
2023-03-06T03:56:13.483Z,77637.00
2023-03-06T03:58:49.754Z,77645.13
2023-03-06T04:01:17.173Z,77651.19
2023-03-06T04:03:44.587Z,77645.13
2023-03-06T04:06:13.171Z,77653.22
2023-03-06T04:08:40.957Z,77659.31
2023-03-06T04:11:08.725Z,77659.31
2023-03-06T04:13:36.009Z,77661.34
2023-03-06T04:16:04.300Z,77667.44
2023-03-06T04:18:33.152Z,77671.47
2023-03-06T04:21:05.006Z,77667.44
2023-03-06T04:23:33.042Z,77667.44
2023-03-06T04:26:01.055Z,77667.44
2023-03-06T04:28:29.509Z,77667.44
2023-03-06T04:30:58.009Z,77675.53
2023-03-06T04:33:25.583Z,77677.56
2023-03-06T04:35:53.889Z,77673.50
2023-03-06T04:38:26.027Z,77675.53
2023-03-06T04:40:53.162Z,77679.59
2023-03-06T04:43:20.437Z,77679.59
2023-03-06T04:45:47.861Z,77679.59
2023-03-06T04:48:16.717Z,77691.75
2023-03-06T04:50:44.571Z,77681.63
2023-03-06T04:53:14.551Z,77683.66
2023-03-06T04:55:41.621Z,77677.56
2023-03-06T04:58:11.545Z,77695.81
2023-03-06T05:00:38.723Z,77681.63
2023-03-06T05:03:06.003Z,77683.66
2023-03-06T05:05:33.179Z,77685.69
2023-03-06T05:08:00.413Z,77681.63
2023-03-06T05:10:27.697Z,77687.69
2023-03-06T05:12:54.932Z,77699.88
2023-03-06T05:15:22.305Z,77687.69
2023-03-06T05:17:49.796Z,77695.81
2023-03-06T05:20:17.792Z,77691.75
2023-03-06T05:22:45.093Z,77691.75
2023-03-06T05:25:12.606Z,77687.69
2023-03-06T05:27:39.951Z,77683.66
2023-03-06T05:30:08.151Z,77683.66
2023-03-06T05:32:36.065Z,77685.69
2023-03-06T05:35:04.470Z,77683.66
2023-03-06T05:37:31.709Z,77681.63
2023-03-06T05:39:59.150Z,77675.53
2023-03-06T05:42:28.636Z,77675.53
2023-03-06T05:44:55.688Z,77681.63
2023-03-06T05:47:23.069Z,77671.47
2023-03-06T05:49:50.544Z,77677.56
2023-03-06T05:52:18.046Z,77683.66
2023-03-06T05:54:49.722Z,77679.59
2023-03-06T05:57:18.921Z,77675.53
2023-03-06T05:59:46.446Z,77675.53
2023-03-06T06:02:13.747Z,77669.44
2023-03-06T06:04:41.027Z,77667.44
2023-03-06T06:07:08.634Z,77663.38
2023-03-06T06:09:35.739Z,77651.19
2023-03-06T06:12:03.985Z,77649.19
2023-03-06T06:14:34.372Z,77632.94
2023-03-06T06:17:02.446Z,77622.81
2023-03-06T06:19:31.408Z,77622.81
2023-03-06T06:21:58.668Z,77614.69
2023-03-06T06:24:26.676Z,77606.59
2023-03-06T06:26:55.899Z,77608.63
2023-03-06T06:29:23.527Z,77590.38
2023-03-06T06:31:51.356Z,77586.31
2023-03-06T06:34:19.699Z,77580.22
2023-03-06T06:36:47.859Z,77566.03
2023-03-06T06:39:17.317Z,77553.88
2023-03-06T06:42:00.069Z,77541.72
2023-03-06T06:44:35.305Z,77539.69
2023-03-06T06:47:23.479Z,77533.59
2023-03-06T06:49:55.820Z,77521.44
2023-03-06T06:52:25.432Z,77509.25
2023-03-06T06:54:53.011Z,77503.19
2023-03-06T06:57:20.680Z,77493.03
2023-03-06T06:59:47.883Z,77480.88
2023-03-06T07:02:16.754Z,77474.78
2023-03-06T07:05:02.073Z,77460.59
2023-03-06T07:07:34.461Z,77444.38
2023-03-06T07:10:02.695Z,77420.06
2023-03-06T07:12:32.885Z,77389.63
2023-03-06T07:15:00.596Z,77359.22
2023-03-06T07:17:28.170Z,77336.91
2023-03-06T07:19:55.440Z,77310.56
2023-03-06T07:22:23.095Z,77294.34
2023-03-06T07:24:50.142Z,77282.19
2023-03-06T07:27:17.737Z,77274.06
2023-03-06T07:29:45.244Z,77261.91
2023-03-06T07:32:12.638Z,77253.78
2023-03-06T07:34:40.101Z,77233.53
2023-03-06T07:37:07.412Z,77225.41
2023-03-06T07:39:35.081Z,77217.28
2023-03-06T07:42:02.586Z,77201.06
2023-03-06T07:44:29.977Z,77184.84
2023-03-06T07:46:57.212Z,77182.84
2023-03-06T07:49:24.677Z,77174.72
2023-03-06T07:51:51.965Z,77172.69
2023-03-06T07:54:19.085Z,77156.47
2023-03-06T07:56:46.431Z,77138.22
2023-03-06T07:59:13.857Z,77136.19
2023-03-06T08:01:41.122Z,77124.03
2023-03-06T08:04:08.459Z,77122.00
2023-03-06T08:06:36.183Z,77091.59
2023-03-06T08:09:04.258Z,77122.00
2023-03-06T08:11:32.238Z,77115.94
2023-03-06T08:13:59.946Z,77111.88
2023-03-06T08:16:30.207Z,77091.59
2023-03-06T08:18:58.202Z,77087.53
2023-03-06T08:21:28.081Z,77059.16
2023-03-06T08:23:55.849Z,77038.88
2023-03-06T08:26:28.505Z,77026.72
2023-03-06T08:28:58.956Z,76994.28
2023-03-06T08:31:31.404Z,76982.13
2023-03-06T08:34:01.371Z,76957.78
2023-03-06T08:36:29.074Z,76937.53
2023-03-06T08:38:57.007Z,76917.25
2023-03-06T08:41:25.289Z,76909.13
2023-03-06T08:43:52.721Z,76903.06
2023-03-06T08:46:23.516Z,76901.03
2023-03-06T08:48:50.837Z,76884.81
2023-03-06T08:51:18.602Z,76872.66
2023-03-06T08:53:46.603Z,76860.47
2023-03-06T08:56:19.965Z,76860.47
2023-03-06T08:58:47.898Z,76856.44
2023-03-06T09:01:18.127Z,76844.25
2023-03-06T09:03:47.344Z,76852.38
2023-03-06T09:06:15.031Z,76840.22
2023-03-06T09:08:44.047Z,76826.00
2023-03-06T09:11:12.928Z,76807.78
2023-03-06T09:13:40.410Z,76801.69
2023-03-06T09:16:09.487Z,76799.66
2023-03-06T09:18:37.138Z,76787.50
2023-03-06T09:21:04.996Z,76803.72
2023-03-06T09:23:32.869Z,76795.59
2023-03-06T09:26:01.542Z,76791.56
2023-03-06T09:28:28.653Z,76779.38
2023-03-06T09:30:55.881Z,76753.03
2023-03-06T09:33:23.968Z,76738.84
2023-03-06T09:35:56.260Z,76722.63
2023-03-06T09:38:27.726Z,76698.31
2023-03-06T09:40:58.184Z,76690.19
2023-03-06T09:43:28.934Z,76690.19
2023-03-06T09:45:57.213Z,76682.09
2023-03-06T09:48:48.911Z,76673.97
2023-03-06T09:51:19.936Z,76678.03
2023-03-06T09:53:58.132Z,76669.94
2023-03-06T09:56:31.845Z,76673.97
2023-03-06T09:59:13.464Z,76669.94
2023-03-06T10:01:54.276Z,76649.66
2023-03-06T10:04:41.398Z,76637.50
2023-03-06T10:07:15.712Z,76661.81
2023-03-06T10:10:11.772Z,76645.59
2023-03-06T10:12:52.249Z,76659.78
2023-03-06T10:15:22.573Z,76653.72
2023-03-06T10:17:50.574Z,76635.47
2023-03-06T10:20:22.496Z,76633.44
2023-03-06T10:23:03.024Z,76635.47
2023-03-06T10:25:51.876Z,76641.53
2023-03-06T10:28:35.520Z,76617.22
2023-03-06T10:31:12.027Z,76623.31
2023-03-06T10:33:52.896Z,76617.22
2023-03-06T10:36:25.519Z,76633.44
2023-03-06T10:38:57.741Z,76645.59
2023-03-06T10:41:31.091Z,76649.66
2023-03-06T10:44:01.572Z,76653.72
2023-03-06T10:46:35.225Z,76649.66
2023-03-06T10:49:23.667Z,76637.50
2023-03-06T10:52:21.443Z,76629.38
2023-03-06T10:54:49.206Z,76633.44
2023-03-06T10:57:20.840Z,76645.59
2023-03-06T10:59:59.439Z,76657.75
2023-03-06T11:02:38.926Z,76669.94
2023-03-06T11:05:19.522Z,76690.19
2023-03-06T11:07:56.023Z,76690.19
2023-03-06T11:10:24.675Z,76698.31
2023-03-06T11:13:06.314Z,76698.31
2023-03-06T11:15:34.292Z,76694.25
2023-03-06T11:18:09.755Z,76690.19
2023-03-06T11:20:51.106Z,76686.13
2023-03-06T11:23:24.174Z,76688.16
2023-03-06T11:26:09.098Z,76726.69
2023-03-06T11:28:56.234Z,76726.69
2023-03-06T11:31:35.218Z,76714.53
2023-03-06T11:34:18.915Z,76698.31
2023-03-06T11:37:08.349Z,76678.03
2023-03-06T11:40:00.781Z,76682.09
2023-03-06T11:42:42.652Z,76694.25
2023-03-06T11:45:29.369Z,76692.22
2023-03-06T11:48:14.877Z,76686.13
2023-03-06T11:50:42.908Z,76676.00
2023-03-06T11:53:17.687Z,76655.72
2023-03-06T11:56:07.727Z,76649.66
2023-03-06T11:58:53.732Z,76661.81
2023-03-06T12:01:42.302Z,76678.03
2023-03-06T12:04:31.530Z,76694.25
2023-03-06T12:07:20.968Z,76730.75
2023-03-06T12:10:19.110Z,76742.91
2023-03-06T12:12:55.681Z,76755.06
2023-03-06T12:15:52.246Z,76755.06
2023-03-06T12:18:40.564Z,76791.56
2023-03-06T12:21:38.710Z,76811.81
2023-03-06T12:24:12.400Z,76813.84
2023-03-06T12:27:15.426Z,76832.09
2023-03-06T12:30:17.089Z,76824.00
2023-03-06T12:33:40.871Z,76836.16
2023-03-06T12:36:29.011Z,76854.41
2023-03-06T12:39:03.608Z,76856.44
2023-03-06T12:41:47.464Z,76868.59
2023-03-06T12:44:36.477Z,76876.69
2023-03-06T12:47:11.800Z,76876.69
2023-03-06T12:49:44.835Z,76872.66
2023-03-06T12:52:29.642Z,76880.75
2023-03-06T12:55:00.340Z,76884.81
2023-03-06T12:57:28.301Z,76886.84
2023-03-06T12:59:55.936Z,76876.69
2023-03-06T13:02:55.486Z,76872.66
2023-03-06T13:05:31.705Z,76888.88
2023-03-06T13:08:26.789Z,76888.88
2023-03-06T13:11:18.740Z,76888.88
2023-03-06T13:13:48.323Z,76892.91
2023-03-06T13:16:18.635Z,76884.81
2023-03-06T13:18:51.097Z,76874.66
2023-03-06T13:21:46.175Z,76876.69
2023-03-06T13:24:23.212Z,76880.75
2023-03-06T13:26:53.519Z,76870.63
2023-03-06T13:29:36.445Z,76854.41
2023-03-06T13:32:04.053Z,76848.31
2023-03-06T13:34:42.157Z,76848.31
2023-03-06T13:37:23.440Z,76856.44
2023-03-06T13:39:59.591Z,76854.41
2023-03-06T13:42:32.218Z,76864.53
2023-03-06T13:45:08.954Z,76868.59
2023-03-06T13:48:30.003Z,76852.38
2023-03-06T13:50:45.181Z,76864.53
2023-03-06T13:53:31.181Z,76856.44
2023-03-06T13:56:31.580Z,76852.38
2023-03-06T13:59:22.808Z,76848.31
2023-03-06T14:02:02.040Z,76848.31
2023-03-06T14:04:34.970Z,76850.34
2023-03-06T14:07:07.315Z,76842.22
2023-03-06T14:09:46.812Z,76840.22
2023-03-06T14:12:33.197Z,76856.44
2023-03-06T14:15:22.242Z,76844.25
2023-03-06T14:18:20.457Z,76832.09
2023-03-06T14:21:02.653Z,76815.88
2023-03-06T14:23:38.295Z,76813.84
2023-03-06T14:26:20.768Z,76799.66
2023-03-06T14:28:58.845Z,76803.72
2023-03-06T14:31:37.613Z,76803.72
2023-03-06T14:34:15.509Z,76789.53
2023-03-06T14:36:45.424Z,76775.34
2023-03-06T14:39:38.382Z,76763.16
2023-03-06T14:42:29.407Z,76765.19
2023-03-06T14:45:16.808Z,76763.16
2023-03-06T14:47:51.182Z,76751.00
2023-03-06T14:50:29.082Z,76746.97
2023-03-06T14:52:58.540Z,76738.84
2023-03-06T14:55:28.289Z,76738.84
2023-03-06T14:58:20.025Z,76730.75
2023-03-06T15:00:51.727Z,76734.78
2023-03-06T15:03:27.938Z,76730.75
2023-03-06T15:05:55.934Z,76726.69
2023-03-06T15:08:30.956Z,76710.47
2023-03-06T15:11:01.952Z,76714.53
2023-03-06T15:13:31.756Z,76726.69
2023-03-06T15:16:06.712Z,76714.53
2023-03-06T15:18:40.010Z,76710.47
2023-03-06T15:21:19.998Z,76702.34
2023-03-06T15:23:57.755Z,76706.41
2023-03-06T15:26:33.226Z,76704.38
2023-03-06T15:29:10.034Z,76694.25
2023-03-06T15:31:45.828Z,76702.34
2023-03-06T15:34:13.065Z,76698.31
2023-03-06T15:36:48.197Z,76692.22
2023-03-06T15:39:46.744Z,76690.19
2023-03-06T15:42:28.051Z,76698.31
2023-03-06T15:45:00.288Z,76706.41
2023-03-06T15:47:27.994Z,76698.31
2023-03-06T15:49:55.513Z,76698.31
2023-03-06T15:52:24.170Z,76690.19
2023-03-06T15:54:51.595Z,76690.19
2023-03-06T15:57:20.031Z,76704.38
2023-03-06T15:59:47.484Z,76702.34
2023-03-06T16:02:18.168Z,76710.47
2023-03-06T16:04:46.776Z,76714.53
2023-03-06T16:07:14.467Z,76718.56
2023-03-06T16:09:43.497Z,76722.63
2023-03-06T16:12:21.425Z,76726.69
2023-03-06T16:14:49.884Z,76714.53
2023-03-06T16:17:17.641Z,76730.75
2023-03-06T16:19:45.514Z,76736.81
2023-03-06T16:22:12.601Z,76734.78
2023-03-06T16:24:40.667Z,76742.91
2023-03-06T16:27:20.360Z,76742.91
2023-03-06T16:29:48.441Z,76738.84
2023-03-06T16:32:15.733Z,76734.78
2023-03-06T16:34:44.292Z,76734.78
2023-03-06T16:37:13.733Z,76728.72
2023-03-06T16:39:41.568Z,76742.91
2023-03-06T16:42:08.675Z,76736.81
2023-03-06T16:44:35.960Z,76742.91
2023-03-06T16:47:03.369Z,76740.88
2023-03-06T16:49:32.773Z,76730.75
2023-03-06T16:52:00.592Z,76738.84
2023-03-06T16:54:28.913Z,76738.84
2023-03-06T16:56:55.859Z,76742.91
2023-03-06T16:59:25.031Z,76738.84
2023-03-06T17:01:51.967Z,76726.69
2023-03-06T17:04:19.612Z,76730.75
2023-03-06T17:06:46.611Z,76734.78
2023-03-06T17:09:14.508Z,76730.75
2023-03-06T17:11:43.495Z,76738.84
2023-03-06T17:14:11.194Z,76734.78
2023-03-06T17:16:40.422Z,76732.75
2023-03-06T17:19:11.997Z,76753.03
2023-03-06T17:21:39.795Z,76734.78
2023-03-06T17:24:07.558Z,76738.84
2023-03-06T17:26:36.589Z,76742.91
2023-03-06T17:29:06.868Z,76738.84
2023-03-06T17:31:34.470Z,76730.75
2023-03-06T17:34:02.126Z,76734.78
2023-03-06T17:36:31.469Z,76734.78
2023-03-06T17:39:00.661Z,76738.84
2023-03-06T17:41:30.087Z,76736.81
2023-03-06T17:43:59.380Z,76746.97
2023-03-06T17:46:32.943Z,76744.94
2023-03-06T17:49:00.968Z,76742.91
2023-03-06T17:51:28.049Z,76751.00
2023-03-06T17:53:56.613Z,76744.94
2023-03-06T17:56:23.893Z,76734.78
2023-03-06T17:58:51.657Z,76742.91
2023-03-06T18:01:22.275Z,76738.84
2023-03-06T18:03:51.504Z,76738.84
2023-03-06T18:06:20.742Z,76742.91
2023-03-06T18:08:52.776Z,76755.06
2023-03-06T18:11:21.211Z,76746.97
2023-03-06T18:13:49.240Z,76751.00
2023-03-06T18:16:20.381Z,76751.00
2023-03-06T18:18:55.178Z,76742.91
2023-03-06T18:21:24.956Z,76746.97
2023-03-06T18:23:52.487Z,76742.91
2023-03-06T18:26:19.536Z,76748.97
2023-03-06T18:28:52.174Z,76744.94
2023-03-06T18:31:24.440Z,76751.00
2023-03-06T18:33:53.607Z,76742.91
2023-03-06T18:36:22.920Z,76742.91
2023-03-06T18:38:51.786Z,76734.78
2023-03-06T18:41:21.000Z,76742.91
2023-03-06T18:43:53.880Z,76746.97
2023-03-06T18:46:22.413Z,76751.00
2023-03-06T18:48:49.813Z,76746.97
2023-03-06T18:51:17.279Z,76746.97
2023-03-06T18:53:45.967Z,76753.03
2023-03-06T18:56:19.820Z,76746.97
2023-03-06T18:58:48.680Z,76738.84
2023-03-06T19:01:16.134Z,76734.78
2023-03-06T19:03:46.573Z,76738.84
2023-03-06T19:06:17.019Z,76734.78
2023-03-06T19:08:44.724Z,76734.78
2023-03-06T19:11:16.936Z,76732.75
2023-03-06T19:13:44.897Z,76730.75
2023-03-06T19:16:22.357Z,76726.69
2023-03-06T19:18:50.375Z,76726.69
2023-03-06T19:21:22.045Z,76726.69
2023-03-06T19:23:49.843Z,76738.84
2023-03-06T19:26:18.866Z,76736.81
2023-03-06T19:28:47.660Z,76738.84
2023-03-06T19:31:26.861Z,76742.91
2023-03-06T19:33:57.080Z,76742.91
2023-03-06T19:36:28.021Z,76742.91
2023-03-06T19:38:59.849Z,76742.91
2023-03-06T19:41:28.110Z,76746.97
2023-03-06T19:43:58.358Z,76746.97
2023-03-06T19:46:26.770Z,76746.97
2023-03-06T19:48:56.326Z,76742.91
2023-03-06T19:51:24.941Z,76748.97
2023-03-06T19:53:52.764Z,76738.84
2023-03-06T19:56:22.840Z,76746.97
2023-03-06T19:58:50.956Z,76748.97
2023-03-06T20:01:21.537Z,76748.97
2023-03-06T20:03:50.681Z,76746.97
2023-03-06T20:06:20.063Z,76751.00
2023-03-06T20:08:48.088Z,76746.97
2023-03-06T20:11:24.385Z,76748.97
2023-03-06T20:13:52.790Z,76751.00
2023-03-06T20:16:20.119Z,76763.16
2023-03-06T20:18:47.393Z,76755.06
2023-03-06T20:21:15.620Z,76759.13
2023-03-06T20:23:43.374Z,76761.16
2023-03-06T20:26:12.524Z,76759.13
2023-03-06T20:28:41.035Z,76763.16
2023-03-06T20:31:08.671Z,76763.16
2023-03-06T20:33:36.974Z,76759.13
2023-03-06T20:36:04.406Z,76759.13
2023-03-06T20:38:32.015Z,76763.16
2023-03-06T20:40:59.740Z,76751.00
2023-03-06T20:43:27.583Z,76761.16
2023-03-06T20:46:02.656Z,76767.22
2023-03-06T20:48:30.345Z,76779.38
2023-03-06T20:51:11.253Z,76787.50
2023-03-06T20:53:38.844Z,76783.44
2023-03-06T20:56:06.627Z,76783.44
2023-03-06T20:58:36.211Z,76783.44
2023-03-06T21:01:03.072Z,76783.44
2023-03-06T21:03:30.955Z,76779.38
2023-03-06T21:05:58.298Z,76785.47
2023-03-06T21:08:25.973Z,76795.59
2023-03-06T21:10:52.964Z,76791.56
2023-03-06T21:13:21.339Z,76795.59
2023-03-06T21:15:48.231Z,76795.59
2023-03-06T21:18:15.879Z,76783.44
2023-03-06T21:20:43.053Z,76783.44
2023-03-06T21:23:10.910Z,76789.53
2023-03-06T21:25:50.882Z,76787.50
2023-03-06T21:28:19.126Z,76797.63
2023-03-06T21:30:46.185Z,76791.56
2023-03-06T21:33:16.052Z,76783.44
2023-03-06T21:35:44.815Z,76783.44
2023-03-06T21:38:13.591Z,76785.47
2023-03-06T21:40:41.302Z,76783.44
2023-03-06T21:43:09.463Z,76783.44
2023-03-06T21:45:36.532Z,76791.56
2023-03-06T21:48:04.646Z,76799.66
2023-03-06T21:50:31.521Z,76795.59
2023-03-06T21:52:59.040Z,76791.56
2023-03-06T21:55:26.026Z,76797.63
2023-03-06T21:57:55.068Z,76795.59
2023-03-06T22:00:25.885Z,76791.56
2023-03-06T22:02:53.370Z,76799.66
2023-03-06T22:05:20.232Z,76799.66
2023-03-06T22:07:47.556Z,76803.72
2023-03-06T22:10:15.863Z,76791.56
2023-03-06T22:12:45.780Z,76791.56
2023-03-06T22:15:12.714Z,76799.66
2023-03-06T22:17:41.703Z,76799.66
2023-03-06T22:20:09.770Z,76799.66
2023-03-06T22:22:36.957Z,76807.78
2023-03-06T22:25:05.058Z,76817.91
2023-03-06T22:27:32.821Z,76821.97
2023-03-06T22:29:59.711Z,76815.88
2023-03-06T22:32:27.186Z,76815.88
2023-03-06T22:34:54.057Z,76813.84
2023-03-06T22:37:21.435Z,76811.81
2023-03-06T22:39:48.320Z,76815.88
2023-03-06T22:42:15.471Z,76819.94
2023-03-06T22:44:42.396Z,76819.94
2023-03-06T22:47:09.763Z,76821.97
2023-03-06T22:49:37.559Z,76824.00
2023-03-06T22:52:04.851Z,76819.94
2023-03-06T22:54:32.654Z,76824.00
2023-03-06T22:57:00.217Z,76824.00
2023-03-06T22:59:27.813Z,76826.00
2023-03-06T23:01:54.986Z,76824.00
2023-03-06T23:04:22.048Z,76836.16
2023-03-06T23:06:49.384Z,76832.09
2023-03-06T23:09:22.445Z,76828.03
2023-03-06T23:12:09.212Z,76836.16
2023-03-06T23:14:55.337Z,76828.03
2023-03-06T23:17:41.461Z,76826.00
2023-03-06T23:20:27.172Z,76836.16
2023-03-06T23:23:13.212Z,76848.31
2023-03-06T23:25:44.241Z,76856.44
2023-03-06T23:28:12.220Z,76864.53
2023-03-06T23:30:39.754Z,76870.63
2023-03-06T23:33:08.139Z,76880.75
2023-03-06T23:35:36.848Z,76892.91
2023-03-06T23:38:04.981Z,76894.94
2023-03-06T23:40:34.057Z,76913.19
2023-03-06T23:43:02.658Z,76913.19
2023-03-06T23:45:29.970Z,76925.34
2023-03-06T23:47:58.188Z,76939.53
2023-03-06T23:50:26.269Z,76941.56
2023-03-06T23:52:54.847Z,76953.75
2023-03-06T23:55:22.716Z,76945.63
2023-03-06T23:57:50.568Z,76951.72
